Flight Track Log - Related Links

Times and Time Zones

All times are in EDT time to prevent confusion due to time zone crossing. See the CCA1491 flight status page for this flight to view local times or setup timezone preferences in your user account.

Time Position Orientation Groundspeed Altitude Reporting Facility
EDT Latitude Longitude Course Direction KTS MPH feet Rate Location/Type
Mon 09:44:32 AM 31.1456 121.7161 272° West  Level Estimated
Mon 09:45:32 AM 31.1508 121.5731 272° West  Level Estimated
Mon 09:46:32 AM 31.1559 121.4301 272° West  Level Estimated
Mon 09:47:32 AM 31.1608 121.2871 272° West  Level Estimated
Mon 09:48:32 AM 31.1655 121.1441 272° West  Level Estimated
Mon 09:49:32 AM 31.1701 121.0010 272° West  Level Estimated
Mon 09:50:32 AM 31.1745 120.8580 272° West  Level Estimated
Mon 09:51:32 AM 31.1787 120.7149 272° West  Level Estimated
Mon 09:52:32 AM 31.1828 120.5718 272° West  Level Estimated
Mon 09:53:32 AM 31.1868 120.4287 272° West  Level Estimated
Mon 09:54:32 AM 31.1906 120.2856 272° West  Level Estimated
Mon 09:55:32 AM 31.1942 120.1425 272° West  Level Estimated
Mon 09:56:32 AM 31.1977 119.9994 272° West  Level Estimated
Mon 09:57:32 AM 31.2010 119.8562 272° West  Level Estimated
Mon 09:58:32 AM 31.2041 119.7131 271° West  Level Estimated
Mon 09:59:32 AM 31.2071 119.5699 271° West  Level Estimated
Mon 10:00:32 AM 31.2099 119.4267 271° West  Level Estimated
Mon 10:01:32 AM 31.2126 119.2835 271° West  Level Estimated
Mon 10:02:32 AM 31.2151 119.1404 271° West  Level Estimated
Mon 10:03:32 AM 31.2175 118.9972 271° West  Level Estimated
Mon 10:04:32 AM 31.2197 118.8540 271° West  Level Estimated
Mon 10:05:32 AM 31.2217 118.7107 271° West  Level Estimated
Mon 10:06:32 AM 31.2236 118.5675 271° West  Level Estimated
Mon 10:07:32 AM 31.2253 118.4243 271° West  Level Estimated
Mon 10:08:32 AM 31.2269 118.2811 271° West  Level Estimated
Mon 10:09:32 AM 31.2283 118.1378 271° West  Level Estimated
Mon 10:10:32 AM 31.2295 117.9946 271° West  Level Estimated
Mon 10:11:32 AM 31.2306 117.8514 270° West  Level Estimated
Mon 10:12:32 AM 31.2315 117.7081 270° West  Level Estimated
Mon 10:13:32 AM 31.2323 117.5649 270° West  Level Estimated
Mon 10:14:32 AM 31.2329 117.4217 270° West  Level Estimated
Mon 10:15:32 AM 31.2334 117.2784 270° West  Level Estimated
Mon 10:16:32 AM 31.2336 117.1352 270° West  Level Estimated
Mon 10:17:32 AM 31.2338 116.9919 270° West  Level Estimated
Mon 10:18:32 AM 31.2337 116.8487 270° West  Level Estimated
Mon 10:19:32 AM 31.2336 116.7054 270° West  Level Estimated
Mon 10:20:32 AM 31.2332 116.5622 270° West  Level Estimated
Mon 10:21:32 AM 31.2327 116.4189 270° West  Level Estimated
Mon 10:22:32 AM 31.2321 116.2757 270° West  Level Estimated
Mon 10:23:32 AM 31.2312 116.1324 270° West  Level Estimated
Mon 10:24:32 AM 31.2303 115.9892 270° West  Level Estimated
Mon 10:25:32 AM 31.2291 115.8460 269° West  Level Estimated
Mon 10:26:32 AM 31.2278 115.7028 269° West  Level Estimated
Mon 10:27:32 AM 31.2264 115.5595 269° West  Level Estimated
Mon 10:28:32 AM 31.2248 115.4163 269° West  Level Estimated
Mon 10:29:32 AM 31.2230 115.2731 269° West  Level Estimated
Mon 10:30:32 AM 31.2211 115.1299 269° West  Level Estimated
Mon 10:31:32 AM 31.2190 114.9866 269° West  Level Estimated
Mon 10:32:32 AM 31.2167 114.8435 269° West  Level Estimated
Mon 10:33:32 AM 31.2143 114.7003 269° West  Level Estimated
Mon 10:34:32 AM 31.2117 114.5571 269° West  Level Estimated
Mon 10:35:32 AM 31.2090 114.4139 269° West  Level Estimated
Mon 10:36:32 AM 31.2061 114.2707 269° West  Level Estimated
Mon 10:37:32 AM 31.2031 114.1276 269° West  Level Estimated
Mon 10:38:32 AM 31.1999 113.9844 268° West  Level Estimated
Mon 10:39:32 AM 31.1965 113.8413 268° West  Level Estimated
Mon 10:40:32 AM 31.1930 113.6981 268° West  Level Estimated
Mon 10:41:32 AM 31.1893 113.5550 268° West  Level Estimated
Mon 10:42:32 AM 31.1855 113.4119 268° West  Level Estimated
Mon 10:43:32 AM 31.1815 113.2688 268° West  Level Estimated
Mon 10:44:32 AM 31.1774 113.1257 268° West  Level Estimated
Mon 10:45:32 AM 31.1730 112.9827 268° West  Level Estimated
Mon 10:46:32 AM 31.1686 112.8396 268° West  Level Estimated
Mon 10:47:32 AM 31.1639 112.6966 268° West  Level Estimated
Mon 10:48:32 AM 31.1592 112.5536 268° West  Level Estimated
Mon 10:49:32 AM 31.1542 112.4105 268° West  Level Estimated
Mon 10:50:32 AM 31.1491 112.2675 268° West  Level Estimated
Mon 10:51:32 AM 31.1439 112.1246 268° West  Level Estimated
Mon 10:52:32 AM 31.1385 111.9816 267° West  Level Estimated
Mon 10:53:32 AM 31.1329 111.8386 267° West  Level Estimated
Mon 10:54:32 AM 31.1271 111.6957 267° West  Level Estimated
Mon 10:55:32 AM 31.1213 111.5528 267° West  Level Estimated
Mon 10:56:32 AM 31.1152 111.4099 267° West  Level Estimated
Mon 10:57:32 AM 31.1090 111.2670 267° West  Level Estimated
Mon 10:58:32 AM 31.1026 111.1241 267° West  Level Estimated
Mon 10:59:32 AM 31.0961 110.9813 267° West  Level Estimated
Mon 11:00:32 AM 31.0895 110.8385 267° West  Level Estimated
Mon 11:01:32 AM 31.0826 110.6957 267° West  Level Estimated
Mon 11:02:32 AM 31.0756 110.5529 267° West  Level Estimated
Mon 11:03:32 AM 31.0685 110.4101 267° West  Level Estimated
Mon 11:04:32 AM 31.0612 110.2674 267° West  Level Estimated
Mon 11:05:32 AM 31.0537 110.1247 266° West  Level Estimated
Mon 11:06:32 AM 31.0461 109.9820 266° West  Level Estimated
Mon 11:07:32 AM 31.0383 109.8393 266° West  Level Estimated
Mon 11:08:32 AM 31.0304 109.6967 266° West  Level Estimated
Mon 11:09:32 AM 31.0223 109.5540 266° West  Level Estimated
Mon 11:10:32 AM 31.0140 109.4115 266° West  Level Estimated
Mon 11:11:32 AM 31.0056 109.2689 266° West  Level Estimated
Mon 11:12:32 AM 30.9971 109.1263 266° West  Level Estimated
Mon 11:13:32 AM 30.9884 108.9838 266° West  Level Estimated
Mon 11:14:32 AM 30.9795 108.8413 266° West  Level Estimated
Mon 11:15:32 AM 30.9705 108.6988 266° West  Level Estimated
Mon 11:16:32 AM 30.9613 108.5564 266° West  Level Estimated
Mon 11:17:32 AM 30.9519 108.4140 266° West  Level Estimated
Mon 11:18:32 AM 30.9424 108.2716 266° West  Level Estimated
Mon 11:19:32 AM 30.9328 108.1292 265° West  Level Estimated
Mon 11:20:32 AM 30.9230 107.9869 265° West  Level Estimated
Mon 11:21:32 AM 30.9130 107.8446 265° West  Level Estimated
Mon 11:22:32 AM 30.9029 107.7023 265° West  Level Estimated
Mon 11:23:32 AM 30.8926 107.5601 265° West  Level Estimated
Mon 11:24:32 AM 30.8822 107.4179 265° West  Level Estimated
Mon 11:25:32 AM 30.8716 107.2757 265° West  Level Estimated
Mon 11:26:32 AM 30.8608 107.1336 265° West  Level Estimated
Mon 11:27:32 AM 30.8500 106.9914 265° West  Level Estimated
Mon 11:28:32 AM 30.8389 106.8494 265° West  Level Estimated
Mon 11:29:32 AM 30.8277 106.7073 265° West  Level Estimated
Mon 11:30:32 AM 30.8163 106.5653 265° West  Level Estimated
Mon 11:31:32 AM 30.8048 106.4233 265° West  Level Estimated
Mon 11:32:32 AM 30.7931 106.2814 264° West  Level Estimated
Mon 11:33:32 AM 30.7813 106.1395 264° West  Level Estimated
Mon 11:34:32 AM 30.7693 105.9976 264° West  Level Estimated
Mon 11:35:32 AM 30.7572 105.8558 264° West  Level Estimated
Mon 11:36:32 AM 30.7449 105.7140 264° West  Level Estimated
Mon 11:37:32 AM 30.7325 105.5722 264° West  Level Estimated
Mon 11:38:32 AM 30.7199 105.4305 264° West  Level Estimated
Mon 11:39:32 AM 30.7071 105.2888 264° West  Level Estimated
Mon 11:40:32 AM 30.6942 105.1471 264° West  Level Estimated
Mon 11:41:32 AM 30.6811 105.0055 264° West  Level Estimated
Mon 11:42:32 AM 30.6679 104.8639 264° West  Level Estimated
Mon 11:43:32 AM 30.6545 104.7224 264° West  Level Estimated
Mon 11:44:32 AM 30.6410 104.5809 264° West  Level Estimated
Mon 11:45:32 AM 30.6273 104.4394 264° West  Level Estimated
Mon 11:46:32 AM 30.6135 104.2980 263° West  Level Estimated
Mon 11:47:32 AM 30.5995 104.1566 263° West  Level Estimated
Mon 11:48:32 AM 30.5854 104.0153 263° West  Level Estimated
Mon 11:49:32 AM 30.5711 103.8739 83° East  Level Estimated
Mon 11:50:32 AM 30.5854 104.0153 263° West  Level Estimated
Mon 11:51:32 AM 30.5711 103.8739 83° East  Level Estimated
Mon 11:52:32 AM 30.5854 104.0153 263° West  Level Estimated
Mon 11:53:32 AM 30.5711 103.8739 83° East  Level Estimated
Mon 11:54:32 AM 30.5854 104.0153 263° West  Level Estimated
Mon 11:55:32 AM 30.5711 103.8739 83° East  Level Estimated
Mon 11:56:32 AM 30.5854 104.0153 263° West  Level Estimated
Mon 11:57:32 AM 30.5711 103.8739 83° East  Level Estimated
Mon 11:58:32 AM 30.5854 104.0153 263° West  Level Estimated
Mon 11:59:32 AM 30.5711 103.8739 83° East  Level Estimated
Mon 12:00:32 PM 30.5854 104.0153 263° West  Level Estimated
Mon 12:01:32 PM 30.5711 103.8739 83° East  Level Estimated
Mon 12:02:32 PM 30.5854 104.0153 263° West  Level Estimated
Mon 12:03:32 PM 30.5711 103.8739 83° East  Level Estimated
Mon 12:04:32 PM 30.5854 104.0153 83° East  Level Estimated

Login

Don't have an account? Register now (free) for customized features, flight alerts, and more!